Time;durP1;ratioP1;P1;durP2;ratioP2;P2;SDS_P1;SDS_P2;PMS_P1;PMS_P2;Temp;Humidity;BMP_temperature;BMP_pressure;BME280_temperature;BME280_humidity;BME280_pressure;Samples;Min_cycle;Max_cycle;Signal;HPM_P1;HPM_P2
2023/11/25 00:02:24;;;;;;;;;;;;;;;-144.99;100.00;52702.88;5030998;28;19925;-69
2023/11/25 00:04:50;;;;;;;;;;;;;;;-144.99;100.00;52717.16;5037516;28;19959;-69
2023/11/25 00:07:16;;;;;;;;;;;;;;;-144.99;100.00;52704.94;5029962;28;19983;-66
2023/11/25 00:09:44;;;;;;;;;;;;;;;-144.99;100.00;52694.72;5036760;28;19931;-69
2023/11/25 00:12:11;;;;;;;;;;;;;;;-144.99;100.00;52713.09;5025342;28;20003;-69
2023/11/25 00:14:37;;;;;;;;;;;;;;;-144.99;100.00;52717.16;5029576;28;20346;-69
2023/11/25 00:17:04;;;;;;;;;;;;;;;-144.99;100.00;52680.47;5023937;28;19979;-62
2023/11/25 00:19:30;;;;;;;;;;;;;;;-144.99;100.00;52745.69;5025712;28;19940;-63
2023/11/25 00:21:57;;;;;;;;;;;;;;;-144.99;100.00;52660.09;5025378;28;20016;-65
2023/11/25 00:24:23;;;;;;;;;;;;;;;-144.99;100.00;52676.38;5028668;28;19968;-66
2023/11/25 00:26:51;;;;;;;;;;;;;;;-144.99;100.00;52704.94;5027974;28;20383;-65
2023/11/25 00:29:18;;;;;;;;;;;;;;;-144.99;100.00;52692.69;5027763;28;19971;-66
2023/11/25 00:31:47;;;;;;;;;;;;;;;-144.99;100.00;52692.69;5021178;28;20457;-68
2023/11/25 00:34:14;;;;;;;;;;;;;;;-144.99;100.00;52717.16;5026100;28;20268;-70
2023/11/25 00:36:40;;;;;;;;;;;;;;;-144.99;100.00;52698.81;5032218;28;19948;-69
2023/11/25 00:39:07;;;;;;;;;;;;;;;-144.99;100.00;52717.16;5032786;28;19968;-69
2023/11/25 00:41:34;;;;;;;;;;;;;;;-144.99;100.00;52692.69;5032278;28;20329;-69
2023/11/25 00:44:03;;;;;;;;;;;;;;;-144.99;100.00;52713.09;5032304;28;19948;-68
2023/11/25 00:46:29;;;;;;;;;;;;;;;-144.99;100.00;52643.78;5025835;28;20018;-69
2023/11/25 00:48:56;;;;;;;;;;;;;;;-144.99;100.00;52696.78;5030534;28;19925;-70
2023/11/25 00:51:22;;;;;;;;;;;;;;;-144.99;100.00;52729.38;5031408;28;19929;-70
2023/11/25 00:53:49;;;;;;;;;;;;;;;-144.99;100.00;52743.66;5031598;28;19968;-70
2023/11/25 00:56:15;;;;;;;;;;;;;;;-144.99;100.00;52762.00;5032051;28;20409;-70
2023/11/25 00:58:42;;;;;;;;;;;;;;;-144.99;100.00;52647.84;5029517;28;20408;-71
2023/11/25 01:01:10;;;;;;;;;;;;;;;-144.99;100.00;52686.59;5036958;28;20011;-71
2023/11/25 01:03:36;;;;;;;;;;;;;;;-144.99;100.00;52686.59;5031937;28;20469;-70
2023/11/25 01:06:06;;;;;;;;;;;;;;;-144.99;100.00;52684.53;5031488;28;19929;-65
2023/11/25 01:08:33;;;;;;;;;;;;;;;-144.99;100.00;52721.22;5023502;28;20437;-68
2023/11/25 01:11:00;;;;;;;;;;;;;;;-144.99;100.00;52700.84;5031233;28;20363;-68
2023/11/25 01:13:26;;;;;;;;;;;;;;;-144.99;100.00;52700.84;5031318;28;19968;-68
2023/11/25 01:15:54;;;;;;;;;;;;;;;-144.99;100.00;52721.22;5030313;28;19925;-69
2023/11/25 01:18:22;;;;;;;;;;;;;;;-144.99;100.00;52692.69;5027859;28;19961;-69
2023/11/25 01:20:48;;;;;;;;;;;;;;;-144.99;100.00;52680.47;5030463;28;20427;-68
2023/11/25 01:23:15;;;;;;;;;;;;;;;-144.99;100.00;52715.13;5028042;28;20025;-68
2023/11/25 01:25:41;;;;;;;;;;;;;;;-144.99;100.00;52660.09;5024251;28;20342;-68
2023/11/25 01:28:08;;;;;;;;;;;;;;;-144.99;100.00;52751.81;5027282;28;20004;-67
2023/11/25 01:30:37;;;;;;;;;;;;;;;-144.99;100.00;52694.72;5028851;28;19935;-69
2023/11/25 01:33:06;;;;;;;;;;;;;;;-144.99;100.00;52704.94;5030105;28;19933;-68
2023/11/25 01:35:34;;;;;;;;;;;;;;;-144.99;100.00;52676.38;5030926;28;19929;-68
2023/11/25 01:38:00;;;;;;;;;;;;;;;-144.99;100.00;52715.13;5031334;28;19933;-69
2023/11/25 01:40:27;;;;;;;;;;;;;;;-144.99;100.00;52749.78;5031316;28;19933;-68
2023/11/25 01:42:56;;;;;;;;;;;;;;;-144.99;99.75;52680.47;5029643;28;20449;-68
2023/11/25 01:45:24;;;;;;;;;;;;;;;-144.99;99.58;52725.31;5025181;28;19967;-69
2023/11/25 01:47:52;;;;;;;;;;;;;;;-144.99;99.30;52717.16;5030385;28;20300;-68
2023/11/25 01:50:18;;;;;;;;;;;;;;;-144.99;99.05;52696.78;5030479;28;19932;-66
2023/11/25 01:52:47;;;;;;;;;;;;;;;-144.99;99.19;52717.16;5030637;28;19979;-66
2023/11/25 01:55:14;;;;;;;;;;;;;;;-144.99;99.05;52696.78;5030591;28;20012;-66
2023/11/25 01:57:41;;;;;;;;;;;;;;;-144.99;99.01;52686.59;5030788;28;19925;-66
2023/11/25 02:00:09;;;;;;;;;;;;;;;-144.99;99.35;52692.69;5030145;28;19925;-68
2023/11/25 02:02:36;;;;;;;;;;;;;;;-144.99;99.26;52704.94;5028277;28;19932;-69
2023/11/25 02:05:02;;;;;;;;;;;;;;;-144.99;99.35;52713.09;5030101;28;19956;-69
2023/11/25 02:07:29;;;;;;;;;;;;;;;-144.99;99.38;52704.94;5029411;28;19965;-69
2023/11/25 02:09:58;;;;;;;;;;;;;;;-144.99;99.58;52688.63;5030865;28;19975;-69
2023/11/25 02:12:24;;;;;;;;;;;;;;;-144.99;99.97;52739.56;5034396;28;19956;-69
2023/11/25 02:14:51;;;;;;;;;;;;;;;-144.99;100.00;52698.81;5033413;28;19979;-69
2023/11/25 02:17:17;;;;;;;;;;;;;;;-144.99;100.00;52717.16;5025481;28;19954;-69
2023/11/25 02:19:44;;;;;;;;;;;;;;;-144.99;100.00;52700.84;5030458;28;20020;-69
2023/11/25 02:22:11;;;;;;;;;;;;;;;-144.99;100.00;52662.13;5030020;28;20019;-68
2023/11/25 02:24:38;;;;;;;;;;;;;;;-144.99;100.00;52723.28;5030450;28;19965;-67
2023/11/25 02:27:05;;;;;;;;;;;;;;;-144.99;100.00;52733.47;5030108;28;20207;-67
2023/11/25 02:29:33;;;;;;;;;;;;;;;-144.99;100.00;52696.78;5036609;28;19933;-67
2023/11/25 02:31:59;;;;;;;;;;;;;;;-144.99;100.00;52753.84;5033269;28;19960;-68
2023/11/25 02:34:26;;;;;;;;;;;;;;;-144.99;100.00;52704.94;5032674;28;19968;-68
2023/11/25 02:36:53;;;;;;;;;;;;;;;-144.99;100.00;52706.97;5034787;28;19956;-68
2023/11/25 02:39:20;;;;;;;;;;;;;;;-144.99;100.00;52704.94;5034312;28;19925;-67
2023/11/25 02:41:49;;;;;;;;;;;;;;;-144.99;100.00;52709.00;5029947;28;20040;-68
2023/11/25 02:44:17;;;;;;;;;;;;;;;-144.99;100.00;52737.53;5030470;28;20470;-66
2023/11/25 02:46:44;;;;;;;;;;;;;;;-144.99;100.00;52713.09;5034181;28;19968;-67
2023/11/25 02:49:10;;;;;;;;;;;;;;;-144.99;100.00;52668.22;5026895;28;19925;-67
2023/11/25 02:51:37;;;;;;;;;;;;;;;-144.99;100.00;52717.16;5029886;28;20346;-67
2023/11/25 02:54:05;;;;;;;;;;;;;;;-144.99;100.00;52717.16;5029598;28;19954;-67
2023/11/25 02:56:32;;;;;;;;;;;;;;;-144.99;100.00;52717.16;5023423;28;20205;-67
2023/11/25 02:59:00;;;;;;;;;;;;;;;-144.99;100.00;52725.31;5027395;28;20022;-63
2023/11/25 03:01:29;;;;;;;;;;;;;;;-144.99;100.00;52733.47;5028779;28;20473;-63
2023/11/25 03:03:59;;;;;;;;;;;;;;;-144.99;100.00;52709.00;5029132;28;19925;-63
2023/11/25 03:06:26;;;;;;;;;;;;;;;-144.99;100.00;52729.38;5028887;28;19929;-62
2023/11/25 03:08:53;;;;;;;;;;;;;;;-144.99;100.00;52684.53;5029067;28;19924;-64
2023/11/25 03:11:20;;;;;;;;;;;;;;;-144.99;100.00;52709.00;5029278;28;19976;-64
2023/11/25 03:13:47;;;;;;;;;;;;;;;-144.99;100.00;52709.00;5027528;28;19933;-68
2023/11/25 03:16:16;;;;;;;;;;;;;;;-144.99;100.00;52688.63;5020440;28;19926;-68
2023/11/25 03:18:42;;;;;;;;;;;;;;;-144.99;100.00;52717.16;5025568;28;19925;-67
2023/11/25 03:21:09;;;;;;;;;;;;;;;-144.99;100.00;52713.09;5023910;28;20272;-67
2023/11/25 03:23:37;;;;;;;;;;;;;;;-144.99;100.00;52696.78;5035746;28;19926;-68
2023/11/25 03:26:04;;;;;;;;;;;;;;;-144.99;100.00;52704.94;5035353;28;19961;-68
2023/11/25 03:28:31;;;;;;;;;;;;;;;-144.99;100.00;52713.09;5030370;28;19998;-69
2023/11/25 03:30:58;;;;;;;;;;;;;;;-144.99;100.00;52749.78;5025984;28;19925;-66
2023/11/25 03:33:26;;;;;;;;;;;;;;;-144.99;100.00;52688.63;5027636;28;19979;-66
2023/11/25 03:35:53;;;;;;;;;;;;;;;-144.99;100.00;52696.78;5027000;28;19925;-67
2023/11/25 03:38:19;;;;;;;;;;;;;;;-144.99;100.00;52666.19;5026839;28;19925;-66
2023/11/25 03:40:45;;;;;;;;;;;;;;;-144.99;100.00;52706.97;5028745;28;20196;-66
2023/11/25 03:43:13;;;;;;;;;;;;;;;-144.99;100.00;52690.66;5028826;28;19960;-66
2023/11/25 03:45:40;;;;;;;;;;;;;;;-144.99;100.00;52706.97;5028559;28;19960;-66
2023/11/25 03:48:06;;;;;;;;;;;;;;;-144.99;100.00;52721.22;5025810;28;19937;-66
2023/11/25 03:50:34;;;;;;;;;;;;;;;-144.99;100.00;52688.63;5028190;28;20386;-65
2023/11/25 03:53:00;;;;;;;;;;;;;;;-144.99;100.00;52680.47;5028451;28;19964;-66
2023/11/25 03:55:27;;;;;;;;;;;;;;;-144.99;100.00;52660.09;5027532;28;20349;-66
2023/11/25 03:57:53;;;;;;;;;;;;;;;-144.99;100.00;52725.31;5028452;28;19925;-66
2023/11/25 04:00:22;;;;;;;;;;;;;;;-144.99;100.00;52668.22;5028401;28;19926;-67
2023/11/25 04:02:49;;;;;;;;;;;;;;;-144.99;100.00;52700.84;5028411;28;19925;-67
2023/11/25 04:05:17;;;;;;;;;;;;;;;-144.99;100.00;52676.38;5028193;28;19965;-68
2023/11/25 04:07:45;;;;;;;;;;;;;;;-144.99;100.00;52684.53;5030948;28;19925;-68
2023/11/25 04:10:12;;;;;;;;;;;;;;;-144.99;100.00;52692.69;5031943;28;19972;-68
2023/11/25 04:12:39;;;;;;;;;;;;;;;-144.99;100.00;52664.16;5031910;28;19925;-68
2023/11/25 04:15:06;;;;;;;;;;;;;;;-144.99;100.00;52719.19;5031983;28;19972;-69
2023/11/25 04:17:33;;;;;;;;;;;;;;;-144.99;100.00;52666.19;5022964;28;19925;-67
2023/11/25 04:19:59;;;;;;;;;;;;;;;-144.99;100.00;52696.78;5032239;28;20032;-68
2023/11/25 04:22:26;;;;;;;;;;;;;;;-144.99;100.00;52676.38;5032000;28;19976;-68
2023/11/25 04:24:54;;;;;;;;;;;;;;;-144.99;100.00;52651.94;5032006;28;20386;-69
2023/11/25 04:27:21;;;;;;;;;;;;;;;-144.99;100.00;52676.38;5031959;28;19932;-66
2023/11/25 04:29:48;;;;;;;;;;;;;;;-144.99;100.00;52725.31;5029564;28;19925;-68
2023/11/25 04:32:14;;;;;;;;;;;;;;;-144.99;100.00;52694.72;5031608;28;20019;-65
2023/11/25 04:34:40;;;;;;;;;;;;;;;-144.99;100.00;52700.84;5031937;28;20175;-69
2023/11/25 04:37:07;;;;;;;;;;;;;;;-144.99;100.00;52658.03;5031893;28;19987;-69
2023/11/25 04:39:33;;;;;;;;;;;;;;;-144.99;100.00;52709.00;5032052;28;19965;-69
2023/11/25 04:42:01;;;;;;;;;;;;;;;-144.99;100.00;52700.84;5034427;28;19959;-70
2023/11/25 04:44:28;;;;;;;;;;;;;;;-144.99;100.00;52684.53;5037171;28;19925;-68
2023/11/25 04:46:55;;;;;;;;;;;;;;;-144.99;100.00;52684.53;5034884;28;20011;-69
2023/11/25 04:49:22;;;;;;;;;;;;;;;-144.99;100.00;52668.22;5034656;28;20023;-70
2023/11/25 04:51:49;;;;;;;;;;;;;;;-144.99;100.00;52688.63;5031296;28;20112;-71
2023/11/25 04:54:16;;;;;;;;;;;;;;;-144.99;100.00;52670.28;5028677;28;19925;-67
2023/11/25 04:56:42;;;;;;;;;;;;;;;-144.99;100.00;52680.47;5032190;28;19968;-68
2023/11/25 04:59:10;;;;;;;;;;;;;;;-144.99;100.00;52668.22;5031348;28;20016;-66
2023/11/25 05:01:39;;;;;;;;;;;;;;;-144.99;100.00;52704.94;5031303;28;19936;-69
2023/11/25 05:04:07;;;;;;;;;;;;;;;-144.99;100.00;52682.50;5028535;28;20406;-68
2023/11/25 05:06:33;;;;;;;;;;;;;;;-144.99;100.00;52694.72;5025335;28;19929;-68
2023/11/25 05:09:00;;;;;;;;;;;;;;;-144.99;100.00;52647.84;5022887;28;19933;-67
2023/11/25 05:11:28;;;;;;;;;;;;;;;-144.99;100.00;52660.09;5031046;28;19979;-68
2023/11/25 05:13:54;;;;;;;;;;;;;;;-144.99;100.00;52696.78;5030605;28;19965;-67
2023/11/25 05:16:22;;;;;;;;;;;;;;;-144.99;100.00;52688.63;5026226;28;19949;-68
2023/11/25 05:18:49;;;;;;;;;;;;;;;-144.99;100.00;52664.16;5030868;28;19925;-68
2023/11/25 05:21:15;;;;;;;;;;;;;;;-144.99;100.00;52660.09;5036722;28;19936;-68
2023/11/25 05:23:42;;;;;;;;;;;;;;;-144.99;100.00;52680.47;5037622;28;20307;-68
2023/11/25 05:26:09;;;;;;;;;;;;;;;-144.99;100.00;52696.78;5026140;28;20391;-68
2023/11/25 05:28:35;;;;;;;;;;;;;;;-144.99;100.00;52704.94;5029041;28;19936;-67
2023/11/25 05:31:02;;;;;;;;;;;;;;;-144.99;100.00;52702.88;5028607;28;19986;-68
2023/11/25 05:33:29;;;;;;;;;;;;;;;-144.99;100.00;52664.16;5031013;28;19944;-67
2023/11/25 05:35:56;;;;;;;;;;;;;;;-144.99;100.00;52680.47;5030315;28;20365;-67
2023/11/25 05:38:23;;;;;;;;;;;;;;;-144.99;100.00;52653.97;5025776;28;19929;-67
2023/11/25 05:40:52;;;;;;;;;;;;;;;-144.99;100.00;52688.63;5027510;28;19932;-71
2023/11/25 05:43:18;;;;;;;;;;;;;;;-144.99;100.00;52680.47;5030164;28;20263;-72
2023/11/25 05:45:46;;;;;;;;;;;;;;;-144.99;100.00;52660.09;5021861;28;19960;-70
2023/11/25 05:48:13;;;;;;;;;;;;;;;-144.99;100.00;52656.00;5031038;28;20044;-71
2023/11/25 05:50:40;;;;;;;;;;;;;;;-144.99;100.00;52680.47;5023859;28;19929;-70
2023/11/25 05:53:06;;;;;;;;;;;;;;;-144.99;100.00;52686.59;5030919;28;20071;-71
2023/11/25 05:55:33;;;;;;;;;;;;;;;-144.99;100.00;52651.94;5026784;28;19984;-71
2023/11/25 05:58:00;;;;;;;;;;;;;;;-144.99;100.00;52660.09;5018424;28;20047;-70
2023/11/25 06:00:26;;;;;;;;;;;;;;;-144.99;100.00;52651.94;5021663;28;19972;-65
2023/11/25 06:02:53;;;;;;;;;;;;;;;-144.99;100.00;52664.16;5029733;28;20020;-65
2023/11/25 06:05:19;;;;;;;;;;;;;;;-144.99;100.00;52631.53;5029378;28;19925;-67
2023/11/25 06:07:47;;;;;;;;;;;;;;;-144.99;100.00;52709.00;5027165;28;20367;-67
2023/11/25 06:10:14;;;;;;;;;;;;;;;-144.99;100.00;52709.00;5028535;28;19925;-70
2023/11/25 06:12:41;;;;;;;;;;;;;;;-144.99;100.00;52627.47;5025992;28;19929;-69
2023/11/25 06:15:09;;;;;;;;;;;;;;;-144.99;100.00;52688.63;5029604;28;19987;-69
2023/11/25 06:17:36;;;;;;;;;;;;;;;-144.99;100.00;52651.94;5029660;28;20012;-68
2023/11/25 06:20:03;;;;;;;;;;;;;;;-144.99;100.00;52635.63;5029354;28;19929;-65
2023/11/25 06:22:30;;;;;;;;;;;;;;;-144.99;100.00;52672.31;5029223;28;20443;-66
2023/11/25 06:25:04;;;;;;;;;;;;;;;-144.99;100.00;52692.69;5026372;28;19979;-66
2023/11/25 06:27:30;;;;;;;;;;;;;;;-144.99;100.00;52656.00;5029938;28;19933;-68
2023/11/25 06:29:58;;;;;;;;;;;;;;;-144.99;100.00;52684.53;5027291;28;19973;-68
2023/11/25 06:32:27;;;;;;;;;;;;;;;-144.99;100.00;52698.81;5029915;28;19968;-68
2023/11/25 06:34:56;;;;;;;;;;;;;;;-144.99;100.00;52704.94;5023218;28;20039;-68
2023/11/25 06:37:22;;;;;;;;;;;;;;;-144.99;100.00;52653.97;5029980;28;19936;-68
2023/11/25 06:39:49;;;;;;;;;;;;;;;-144.99;100.00;52660.09;5025836;28;20391;-67
2023/11/25 06:42:17;;;;;;;;;;;;;;;-144.99;100.00;52682.50;5027094;28;20020;-69
2023/11/25 06:44:47;;;;;;;;;;;;;;;-144.99;100.00;52696.78;5017803;28;19964;-69
2023/11/25 06:47:14;;;;;;;;;;;;;;;-144.99;100.00;52721.22;5029653;28;19925;-69
2023/11/25 06:49:42;;;;;;;;;;;;;;;-144.99;100.00;52660.09;5029656;28;20383;-69
2023/11/25 06:52:09;;;;;;;;;;;;;;;-144.99;100.00;52688.63;5028789;28;20008;-69
2023/11/25 06:54:35;;;;;;;;;;;;;;;-144.99;100.00;52688.63;5029305;28;20361;-68
2023/11/25 06:57:02;;;;;;;;;;;;;;;-144.99;100.00;52664.16;5026040;28;19925;-69
2023/11/25 06:59:30;;;;;;;;;;;;;;;-144.99;100.00;52656.00;5025258;28;20387;-68
2023/11/25 07:01:56;;;;;;;;;;;;;;;-144.99;100.00;52656.00;5023047;28;19925;-69
2023/11/25 07:04:23;;;;;;;;;;;;;;;-144.99;100.00;52676.38;5029523;28;19986;-70
2023/11/25 07:06:50;;;;;;;;;;;;;;;-144.99;100.00;52649.88;5028459;28;19972;-71
2023/11/25 07:09:18;;;;;;;;;;;;;;;-144.99;100.00;52715.13;5017722;28;19925;-72
2023/11/25 07:11:45;;;;;;;;;;;;;;;-144.99;100.00;52678.44;5026736;28;20096;-71
2023/11/25 07:14:12;;;;;;;;;;;;;;;-144.99;100.00;52643.78;5027512;28;19980;-72
2023/11/25 07:16:40;;;;;;;;;;;;;;;-144.99;100.00;52680.47;5027988;28;19929;-70
2023/11/25 07:19:08;;;;;;;;;;;;;;;-144.99;100.00;52684.53;5035408;28;19929;-70
2023/11/25 07:21:36;;;;;;;;;;;;;;;-144.99;100.00;52635.63;5036351;28;19972;-65
2023/11/25 07:24:03;;;;;;;;;;;;;;;-144.99;100.00;52680.47;5029854;28;20024;-66
2023/11/25 07:26:30;;;;;;;;;;;;;;;-144.99;100.00;52668.22;5029294;28;19929;-65
2023/11/25 07:28:56;;;;;;;;;;;;;;;-144.99;100.00;52686.59;5028420;28;20035;-65
2023/11/25 07:31:24;;;;;;;;;;;;;;;-144.99;100.00;52684.53;5025989;28;19979;-66
2023/11/25 07:33:51;;;;;;;;;;;;;;;-144.99;100.00;52680.47;5026273;28;19925;-65
2023/11/25 07:36:18;;;;;;;;;;;;;;;-144.99;100.00;52653.97;5028623;28;19925;-65
2023/11/25 07:38:44;;;;;;;;;;;;;;;-144.99;100.00;52670.28;5030389;28;19968;-65
2023/11/25 07:41:15;;;;;;;;;;;;;;;-144.99;100.00;52653.97;5029093;28;19956;-64
2023/11/25 07:43:42;;;;;;;;;;;;;;;-144.99;100.00;52660.09;5029463;28;19979;-68
2023/11/25 07:46:09;;;;;;;;;;;;;;;-144.99;100.00;52623.38;5028703;28;19932;-67
2023/11/25 07:48:36;;;;;;;;;;;;;;;-144.99;100.00;52639.69;5022086;28;19956;-67
2023/11/25 07:51:04;;;;;;;;;;;;;;;-144.99;100.00;52649.88;5027752;28;20024;-67
2023/11/25 07:53:31;;;;;;;;;;;;;;;-144.99;100.00;52656.00;5027908;28;20341;-66
2023/11/25 07:55:57;;;;;;;;;;;;;;;-144.99;100.00;52656.00;5025767;28;19949;-66
2023/11/25 07:58:24;;;;;;;;;;;;;;;-144.99;100.00;52643.78;5028174;28;20325;-65
2023/11/25 08:00:50;;;;;;;;;;;;;;;-144.99;100.00;52623.38;5027843;28;20013;-67
2023/11/25 08:03:17;;;;;;;;;;;;;;;-144.99;100.00;52656.00;5025624;28;20299;-68
2023/11/25 08:05:44;;;;;;;;;;;;;;;-144.99;100.00;52676.38;5027788;28;19929;-70
2023/11/25 08:08:12;;;;;;;;;;;;;;;-144.99;100.00;52619.31;5005022;28;19936;-69
2023/11/25 08:10:38;;;;;;;;;;;;;;;-144.99;100.00;52680.47;5010195;28;20016;-71
2023/11/25 08:13:05;;;;;;;;;;;;;;;-144.99;100.00;52672.31;5027204;28;19929;-71
2023/11/25 08:15:32;;;;;;;;;;;;;;;-144.99;100.00;52615.25;5024403;28;20016;-71
2023/11/25 08:17:58;;;;;;;;;;;;;;;-144.99;100.00;52682.50;5025088;28;20028;-71
2023/11/25 08:20:25;;;;;;;;;;;;;;;-144.99;100.00;52631.53;5021582;28;19929;-71
2023/11/25 08:22:51;;;;;;;;;;;;;;;-144.99;100.00;52660.09;5026703;28;20255;-71
2023/11/25 08:25:19;;;;;;;;;;;;;;;-144.99;100.00;52623.38;5022718;28;19968;-70
2023/11/25 08:27:46;;;;;;;;;;;;;;;-144.99;100.00;52627.47;5025740;28;19981;-70
2023/11/25 08:30:12;;;;;;;;;;;;;;;-144.99;100.00;52647.84;5022685;28;20205;-70
2023/11/25 08:32:40;;;;;;;;;;;;;;;-144.99;100.00;52658.03;5026186;28;19932;-69
2023/11/25 08:35:08;;;;;;;;;;;;;;;-144.99;100.00;52664.16;5027146;28;20310;-69
2023/11/25 08:37:35;;;;;;;;;;;;;;;-144.99;100.00;52598.94;5026949;28;19944;-69
2023/11/25 08:40:03;;;;;;;;;;;;;;;-144.99;100.00;52680.47;5024002;28;20042;-69
2023/11/25 08:42:31;;;;;;;;;;;;;;;-144.99;100.00;52668.22;5024954;28;19929;-69
2023/11/25 08:45:00;;;;;;;;;;;;;;;-144.99;100.00;52619.31;5030789;28;20321;-68
2023/11/25 08:47:26;;;;;;;;;;;;;;;-144.99;100.00;52621.34;5018456;28;20230;-68
2023/11/25 08:49:53;;;;;;;;;;;;;;;-144.99;100.00;52611.16;5024773;28;19979;-69
2023/11/25 08:52:19;;;;;;;;;;;;;;;-144.99;100.00;52619.31;5018187;28;20017;-69
2023/11/25 08:54:48;;;;;;;;;;;;;;;-144.99;100.00;52617.28;5041418;28;20465;-69
2023/11/25 08:57:16;;;;;;;;;;;;;;;-144.99;100.00;52619.31;5030403;28;19948;-68
2023/11/25 08:59:45;;;;;;;;;;;;;;;-144.99;100.00;52582.63;5034990;28;19929;-68
2023/11/25 09:02:12;;;;;;;;;;;;;;;-144.99;100.00;52623.38;5037743;28;20479;-68
2023/11/25 09:04:42;;;;;;;;;;;;;;;-144.99;100.00;52590.78;5034781;28;20019;-68
2023/11/25 09:07:11;;;;;;;;;;;;;;;-144.99;100.00;52574.47;5036030;28;19933;-69
2023/11/25 09:09:38;;;;;;;;;;;;;;;-144.99;100.00;52623.38;5035005;28;19935;-69
2023/11/25 09:12:05;;;;;;;;;;;;;;;-144.99;100.00;52615.25;5029009;28;20347;-69
2023/11/25 09:14:31;;;;;;;;;;;;;;;-144.99;100.00;52580.59;5034258;28;19960;-70
2023/11/25 09:16:59;;;;;;;;;;;;;;;-144.99;100.00;52590.78;5030776;28;19972;-70
2023/11/25 09:19:26;;;;;;;;;;;;;;;-144.99;100.00;52574.47;5027381;28;19972;-69
2023/11/25 09:21:53;;;;;;;;;;;;;;;-144.99;100.00;52590.78;5028226;28;20430;-69
2023/11/25 09:24:19;;;;;;;;;;;;;;;-144.99;100.00;52611.16;4334135;28;10000707;-68
2023/11/25 09:26:47;;;;;;;;;;;;;;;-144.99;100.00;52574.47;5030626;28;19929;-68
2023/11/25 09:29:13;;;;;;;;;;;;;;;-144.99;100.00;52617.28;5034717;28;19928;-70
2023/11/25 09:31:40;;;;;;;;;;;;;;;-144.99;100.00;52596.88;5032406;28;19949;-68
2023/11/25 09:34:08;;;;;;;;;;;;;;;-144.99;100.00;52566.31;5022157;28;20384;-70
2023/11/25 09:36:35;;;;;;;;;;;;;;;-144.99;100.00;52568.34;5027604;28;20091;-70
2023/11/25 09:39:03;;;;;;;;;;;;;;;-144.99;97.89;52529.63;5031911;28;20015;-70
2023/11/25 09:41:31;;;;;;;;;;;;;;;-144.99;92.82;52562.25;5030298;28;19987;-70
2023/11/25 09:43:58;;;;;;;;;;;;;;;-144.99;88.61;52547.97;5023178;28;19930;-70
2023/11/25 09:46:24;;;;;;;;;;;;;;;-144.99;86.04;52484.78;5027457;28;20407;-70
2023/11/25 09:48:51;;;;;;;;;;;;;;;-144.99;81.58;52529.63;5036645;28;19932;-70
2023/11/25 09:51:24;;;;;;;;;;;;;;;-144.99;79.83;52509.25;5032626;28;19964;-70
2023/11/25 09:53:53;;;;;;;;;;;;;;;-144.99;77.15;52505.16;5030963;28;20018;-69
2023/11/25 09:56:20;;;;;;;;;;;;;;;-144.99;77.83;52456.25;5033567;28;20030;-70
2023/11/25 09:58:47;;;;;;;;;;;;;;;-144.99;75.28;52484.78;5031890;28;19935;-71
2023/11/25 10:01:13;;;;;;;;;;;;;;;-144.99;73.69;52472.56;5027034;28;20040;-69
2023/11/25 10:03:42;;;;;;;;;;;;;;;-144.99;72.83;52439.94;5034659;28;20027;-70
2023/11/25 10:06:09;;;;;;;;;;;;;;;-144.99;71.74;52427.72;5026319;28;19936;-70
2023/11/25 10:08:37;;;;;;;;;;;;;;;-144.99;70.26;52450.13;5029755;28;20176;-70
2023/11/25 10:11:05;;;;;;;;;;;;;;;-144.99;69.34;52444.03;5035503;28;20039;-70
2023/11/25 10:13:35;;;;;;;;;;;;;;;-144.99;67.75;52439.94;5029952;28;20438;-70
2023/11/25 10:16:02;;;;;;;;;;;;;;;-144.99;67.84;52419.56;5028325;28;20082;-70
2023/11/25 10:18:29;;;;;;;;;;;;;;;-144.99;67.28;52391.03;5036416;28;20631;-70
2023/11/25 10:20:58;;;;;;;;;;;;;;;-144.99;65.12;52382.88;5031392;28;19955;-70
2023/11/25 10:23:25;;;;;;;;;;;;;;;-144.99;65.22;52382.88;5032136;28;20357;-70
2023/11/25 10:25:53;;;;;;;;;;;;;;;-144.99;64.37;52362.50;5022950;28;20057;-70
2023/11/25 10:28:20;;;;;;;;;;;;;;;-144.99;64.13;52354.34;5034486;28;19928;-70
2023/11/25 10:30:53;;;;;;;;;;;;;;;-144.99;63.45;52338.03;5031141;28;19933;-70
2023/11/25 10:33:21;;;;;;;;;;;;;;;-144.99;62.54;52317.66;5021918;28;20019;-69
2023/11/25 10:35:48;;;;;;;;;;;;;;;-144.99;61.71;52309.50;5032646;28;19932;-69
2023/11/25 10:38:15;;;;;;;;;;;;;;;-144.99;61.54;52309.50;5030635;28;20327;-69
2023/11/25 10:40:42;;;;;;;;;;;;;;;-144.99;61.13;52309.50;5035324;28;20063;-69
2023/11/25 10:43:10;;;;;;;;;;;;;;;-144.99;60.53;52244.28;5029938;28;20019;-69
2023/11/25 10:45:36;;;;;;;;;;;;;;;-144.99;60.21;52227.97;5029986;28;19987;-69
2023/11/25 10:48:04;;;;;;;;;;;;;;;-144.99;59.99;52256.50;5035112;28;20387;-69
2023/11/25 10:50:31;;;;;;;;;;;;;;;-144.99;59.45;52278.91;5030900;28;20377;-69
2023/11/25 10:53:00;;;;;;;;;;;;;;;-144.99;59.76;52285.03;5018236;28;20391;-69
2023/11/25 10:55:28;;;;;;;;;;;;;;;-144.99;59.85;52280.97;5029573;28;19925;-69
2023/11/25 10:57:57;;;;;;;;;;;;;;;-144.99;59.44;52293.19;5022781;28;19933;-69
2023/11/25 11:00:28;;;;;;;;;;;;;;;-144.99;58.94;52272.81;5035119;28;19925;-69
2023/11/25 11:02:57;;;;;;;;;;;;;;;-144.99;58.65;52252.44;5031233;28;20023;-70
2023/11/25 11:05:27;;;;;;;;;;;;;;;-144.99;58.29;52256.50;5032251;28;20350;-69
2023/11/25 11:07:58;;;;;;;;;;;;;;;-144.99;58.39;52307.47;5030556;28;20308;-69
2023/11/25 11:10:29;;;;;;;;;;;;;;;-144.99;58.45;52268.72;5033637;28;20017;-69
2023/11/25 11:13:01;;;;;;;;;;;;;;;-144.99;58.13;52254.47;5028095;28;20259;-69
2023/11/25 11:15:31;;;;;;;;;;;;;;;-144.99;57.78;52248.34;5020479;28;20038;-69
2023/11/25 11:18:01;;;;;;;;;;;;;;;-144.99;57.58;52264.66;5024867;28;20012;-69
2023/11/25 11:20:29;;;;;;;;;;;;;;;-144.99;57.40;52256.50;5031358;28;19966;-69
2023/11/25 11:22:57;;;;;;;;;;;;;;;-144.99;57.34;52227.97;5028207;28;19976;-69
2023/11/25 11:25:28;;;;;;;;;;;;;;;-144.99;57.17;52264.66;5032358;28;20008;-69
2023/11/25 11:27:58;;;;;;;;;;;;;;;-144.99;57.49;52278.91;5027556;28;19940;-70
2023/11/25 11:30:30;;;;;;;;;;;;;;;-144.99;57.07;52366.56;5029803;28;20369;-70
2023/11/25 11:32:59;;;;;;;;;;;;;;;-144.99;57.79;52289.13;5024466;28;19961;-70
2023/11/25 11:35:33;;;;;;;;;;;;;;;-144.99;57.90;52293.19;5031367;28;20443;-69
2023/11/25 11:38:00;;;;;;;;;;;;;;;-144.99;57.87;52260.56;5023247;28;20315;-70
2023/11/25 11:40:26;;;;;;;;;;;;;;;-144.99;57.53;52293.19;5032541;28;19964;-70
2023/11/25 11:42:57;;;;;;;;;;;;;;;-144.99;57.32;52236.13;5029692;28;20013;-69
2023/11/25 11:45:25;;;;;;;;;;;;;;;-144.99;56.70;52244.28;5034419;28;20006;-69
2023/11/25 11:47:52;;;;;;;;;;;;;;;-144.99;56.33;52252.44;5030856;28;20225;-69
2023/11/25 11:50:24;;;;;;;;;;;;;;;-144.99;56.76;52217.78;5028322;28;20223;-69
2023/11/25 11:53:12;;;;;;;;;;;;;;;-144.99;56.79;52293.19;5029020;28;19929;-69
2023/11/25 11:55:39;;;;;;;;;;;;;;;-144.99;56.58;52227.97;5022597;28;20390;-69
2023/11/25 11:58:08;;;;;;;;;;;;;;;-144.99;56.11;52264.66;5030348;28;20399;-69
2023/11/25 12:00:39;;;;;;;;;;;;;;;-144.99;55.76;52248.34;5028135;28;20306;-69
2023/11/25 12:03:06;;;;;;;;;;;;;;;-144.99;56.39;52276.88;5023493;28;19991;-69
2023/11/25 12:05:34;;;;;;;;;;;;;;;-144.99;56.27;52238.16;5024573;28;19929;-69
2023/11/25 12:08:00;;;;;;;;;;;;;;;-144.99;56.20;52256.50;5026145;28;20421;-69
2023/11/25 12:10:27;;;;;;;;;;;;;;;-144.99;55.94;52293.19;5029017;28;19986;-68
2023/11/25 12:12:54;;;;;;;;;;;;;;;-144.99;55.81;52240.19;5034397;28;20006;-69
2023/11/25 12:15:20;;;;;;;;;;;;;;;-144.99;55.69;52252.44;5029981;28;20043;-69
2023/11/25 12:17:47;;;;;;;;;;;;;;;-144.99;55.65;52256.50;5016109;28;20449;-69
2023/11/25 12:20:14;;;;;;;;;;;;;;;-144.99;55.01;52266.69;5031553;28;20355;-68
2023/11/25 12:22:43;;;;;;;;;;;;;;;-144.99;54.99;52242.22;5028394;28;20315;-69